Long Lane, Missouri
Current Conditions -  °F | °C
As of 9:15 AM on Friday 31 Oct 2014 (Local Time) from KH21 Reporting Station
Overcast Overcast  
Wind Chill: 33°   Ceiling: 2700
Heat Index: 41°   Visibility: 10mi
Dew Point: 30°   Wind: 15mph
Humidity: 65%   Direction: 340°NNW
Pressure: 30.34"   Gusts: 26mph
Location:  37.61°N, 92.91°W
Report Text: KH21 311415Z AUTO 34013G23KT 10SM OVC027 05/M01 A3034 RMK AO2
Loading
Personal Weather Stations






























Interactive Weather Map
Tropical Storm Tracking
New forecast layout! Learn more

10-Day Weather Forecast

Advertisements
Track Severe Weather on mobile